Time;durP1;ratioP1;P1;durP2;ratioP2;P2;SDS_P1;SDS_P2;PMS_P1;PMS_P2;Temp;Humidity;BMP_temperature;BMP_pressure;BME280_temperature;BME280_humidity;BME280_pressure;Samples;Min_cycle;Max_cycle;Signal;HPM_P1;HPM_P2
2022/09/02 00:03:38;;;;;;;10.17;3.33;;;;;;;14.08;72.91;101403.51;5101152;56;1139105;-71
2022/09/02 00:08:45;;;;;;;7.53;3.03;;;;;;;14.11;72.92;101408.23;5080166;56;1139120;-65
2022/09/02 00:13:51;;;;;;;4.87;2.70;;;;;;;14.12;73.01;101408.59;5079279;56;1136992;-74
2022/09/02 00:18:58;;;;;;;5.10;2.23;;;;;;;14.13;72.86;101403.64;5201048;56;1136934;-68
2022/09/02 00:24:06;;;;;;;5.90;3.30;;;;;;;13.91;71.86;101397.33;5169528;56;1137170;-68
2022/09/02 00:29:14;;;;;;;4.23;2.17;;;;;;;13.71;72.51;101398.88;5147424;57;1137100;-71
2022/09/02 00:34:20;;;;;;;7.53;2.90;;;;;;;13.66;72.68;101396.20;5160521;56;1137126;-72
2022/09/02 00:39:25;;;;;;;5.30;2.87;;;;;;;13.49;72.90;101392.65;5160617;56;1137213;-67
2022/09/02 00:44:32;;;;;;;7.60;2.93;;;;;;;13.44;73.11;101397.00;5200334;56;1134868;-73
2022/09/02 00:49:44;;;;;;;5.10;2.40;;;;;;;13.45;73.45;101389.84;5219281;56;1134864;-70
2022/09/02 00:54:57;;;;;;;15.77;3.70;;;;;;;13.51;73.93;101388.91;5183717;56;1139145;-71
2022/09/02 01:00:16;;;;;;;16.00;5.33;;;;;;;13.60;74.30;101396.17;5106153;56;1141410;-68
2022/09/02 01:05:23;;;;;;;10.13;3.40;;;;;;;13.68;74.13;101396.94;5072104;57;1141268;-68
2022/09/02 01:10:33;;;;;;;7.07;2.27;;;;;;;13.65;73.59;101403.80;5078278;57;1141117;-74
2022/09/02 01:15:44;;;;;;;4.30;2.23;;;;;;;13.52;73.15;101397.25;5082712;57;1139279;-71
2022/09/02 01:20:50;;;;;;;6.23;2.07;;;;;;;13.39;72.95;101407.13;5129626;57;1139131;-69
2022/09/02 01:25:57;;;;;;;5.73;2.07;;;;;;;13.24;73.05;101409.59;5163203;57;1139023;-71
2022/09/02 01:31:04;;;;;;;3.23;1.97;;;;;;;13.10;73.44;101411.07;5162795;57;1139577;-69
2022/09/02 01:36:10;;;;;;;3.63;2.67;;;;;;;12.94;73.04;101401.58;5162647;57;1139066;-69
2022/09/02 01:41:16;;;;;;;2.67;2.00;;;;;;;12.73;73.44;101403.13;5161858;57;1139040;-70
2022/09/02 01:46:22;;;;;;;7.12;2.33;;;;;;;12.77;74.21;101405.94;5133495;57;1139024;-73
2022/09/02 01:51:29;;;;;;;6.03;2.87;;;;;;;12.87;74.37;101407.44;5134227;57;1139026;-65
2022/09/02 01:56:38;;;;;;;4.57;2.50;;;;;;;12.95;74.50;101412.57;5195687;56;1139016;-69
2022/09/02 02:01:45;;;;;;;4.87;2.60;;;;;;;12.94;74.29;101405.56;5152124;56;1139200;-67
2022/09/02 02:06:52;;;;;;;3.93;2.10;;;;;;;12.85;74.12;101405.37;5151979;56;1139023;-66
2022/09/02 02:11:58;;;;;;;3.23;1.87;;;;;;;12.76;73.99;101407.38;5151868;56;1138978;-67
2022/09/02 02:17:06;;;;;;;9.27;2.33;;;;;;;12.64;73.93;101402.48;5193724;56;1139060;-67
2022/09/02 02:22:12;;;;;;;3.83;1.50;;;;;;;12.51;74.34;101403.85;5222181;56;1139088;-68
2022/09/02 02:27:18;;;;;;;9.73;3.20;;;;;;;12.49;74.61;101402.26;5191272;56;1139059;-70
2022/09/02 02:32:25;;;;;;;3.70;2.07;;;;;;;12.54;74.58;101406.26;5186619;56;1139377;-75
2022/09/02 02:37:32;;;;;;;8.23;2.30;;;;;;;12.45;74.04;101402.95;5186615;57;1138964;-69
2022/09/02 02:42:39;;;;;;;34.23;3.83;;;;;;;12.39;74.53;101399.87;5197605;56;1139589;-68
2022/09/02 02:47:46;;;;;;;17.90;4.03;;;;;;;12.37;74.97;101404.47;5222042;56;1141101;-66
2022/09/02 02:52:53;;;;;;;13.57;2.50;;;;;;;12.34;75.04;101400.22;5222182;56;1141061;-73
2022/09/02 02:58:00;;;;;;;10.38;2.98;;;;;;;12.23;74.99;101398.30;5206651;56;1141086;-68
2022/09/02 03:03:10;;;;;;;14.83;2.53;;;;;;;12.01;74.25;101410.53;5186717;57;1141087;-69
2022/09/02 03:08:21;;;;;;;7.93;2.17;;;;;;;11.73;74.65;101409.76;5186553;56;1141162;-74
2022/09/02 03:13:29;;;;;;;8.10;1.75;;;;;;;11.56;75.48;101408.72;5186702;57;1139336;-68
2022/09/02 03:18:36;;;;;;;5.30;1.63;;;;;;;11.67;76.76;101415.94;5208386;56;1136948;-67
2022/09/02 03:23:43;;;;;;;8.23;1.80;;;;;;;11.82;77.25;101408.30;5209901;56;1136959;-70
2022/09/02 03:28:50;;;;;;;3.08;1.60;;;;;;;11.88;77.06;101406.09;5161682;57;1136995;-70
2022/09/02 03:33:57;;;;;;;3.90;1.83;;;;;;;11.78;75.94;101412.10;5144224;57;1136691;-70
2022/09/02 03:39:08;;;;;;;3.90;2.20;;;;;;;11.66;76.28;101411.59;5161893;56;1136955;-73
2022/09/02 03:44:14;;;;;;;8.63;2.87;;;;;;;11.63;76.72;101414.81;5197348;56;1137402;-67
2022/09/02 03:49:21;;;;;;;8.67;4.10;;;;;;;11.58;76.73;101418.27;5218653;56;1136900;-72
2022/09/02 03:54:28;;;;;;;15.83;3.47;;;;;;;11.54;77.23;101424.72;5218444;56;1136996;-67
2022/09/02 03:59:36;;;;;;;28.43;5.03;;;;;;;11.57;76.95;101417.89;5171977;56;1139020;-67
2022/09/02 04:04:42;;;;;;;46.30;7.80;;;;;;;11.48;76.49;101425.59;5172599;56;1139020;-73
2022/09/02 04:09:48;;;;;;;46.70;7.27;;;;;;;11.37;76.78;101427.64;5015182;57;1139535;-70
2022/09/02 04:14:55;;;;;;;50.87;8.67;;;;;;;11.27;77.04;101422.59;5138901;56;1138924;-67
2022/09/02 04:20:02;;;;;;;40.10;6.47;;;;;;;11.32;77.73;101429.73;5140260;56;1140219;-66
2022/09/02 04:25:10;;;;;;;40.77;7.17;;;;;;;11.36;77.69;101426.41;5134329;57;1138990;-67
2022/09/02 04:30:17;;;;;;;32.20;5.43;;;;;;;11.41;77.66;101429.14;5130591;57;1136949;-71
2022/09/02 04:35:24;;;;;;;28.57;5.80;;;;;;;11.41;77.66;101429.14;4920588;59;1137252;-68
2022/09/02 04:40:31;;;;;;;36.53;5.27;;;;;;;11.40;77.73;101423.47;4920625;59;1141076;-71
2022/09/02 04:45:42;;;;;;;12.13;3.30;;;;;;;11.39;77.74;101425.74;4955661;58;1141040;-66
2022/09/02 04:50:48;;;;;;;12.77;3.50;;;;;;;11.48;78.11;101425.12;4942429;59;1141093;-70
2022/09/02 04:55:55;;;;;;;21.87;4.90;;;;;;;11.60;78.23;101430.94;4944301;59;1141408;-69
2022/09/02 05:01:11;;;;;;;25.00;4.83;;;;;;;11.58;77.89;101428.02;4892296;59;1141074;-68
2022/09/02 05:06:21;;;;;;;31.77;4.70;;;;;;;11.31;77.54;101429.83;4945256;59;1141270;-69
2022/09/02 05:11:32;;;;;;;37.47;5.43;;;;;;;11.04;78.26;101435.99;4958985;59;1141451;-67
2022/09/02 05:16:40;;;;;;;30.03;3.83;;;;;;;10.94;79.43;101440.20;4956547;58;1141231;-67
2022/09/02 05:21:48;;;;;;;33.67;4.73;;;;;;;10.98;80.22;101445.67;5169374;56;1141120;-68
2022/09/02 05:26:58;;;;;;;40.40;4.80;;;;;;;11.10;81.32;101445.34;5078868;57;1141101;-70
2022/09/02 05:32:06;;;;;;;21.57;3.20;;;;;;;11.40;83.26;101450.43;5180120;56;1141125;-68
2022/09/02 05:37:12;;;;;;;5.50;2.80;;;;;;;11.69;85.20;101443.19;5081998;57;1141132;-71
2022/09/02 05:42:19;;;;;;;6.70;2.63;;;;;;;12.02;86.21;101436.09;5127283;56;1139059;-67
2022/09/02 05:47:26;;;;;;;12.90;2.37;;;;;;;12.29;86.86;101436.82;5122245;57;1138995;-72
2022/09/02 05:52:33;;;;;;;4.40;2.30;;;;;;;12.61;87.65;101435.88;5013139;58;1141185;-70
2022/09/02 05:57:39;;;;;;;4.10;2.40;;;;;;;12.92;87.44;101439.34;5082107;57;1138969;-67
2022/09/02 06:02:46;;;;;;;13.60;2.43;;;;;;;13.25;87.91;101437.37;5129752;56;1138992;-67
2022/09/02 06:07:56;;;;;;;16.67;3.00;;;;;;;13.50;86.83;101439.52;5029896;57;1141136;-70
2022/09/02 06:13:03;;;;;;;4.80;1.90;;;;;;;13.74;86.56;101432.38;5108194;57;1141620;-67
2022/09/02 06:18:12;;;;;;;6.50;2.20;;;;;;;13.91;85.88;101431.89;5124105;56;1139160;-70
2022/09/02 06:23:18;;;;;;;5.10;2.67;;;;;;;14.11;85.03;101441.48;5142220;56;1139080;-68
2022/09/02 06:28:25;;;;;;;12.07;2.53;;;;;;;14.27;85.03;101428.67;5124873;57;1139281;-74
2022/09/02 06:33:33;;;;;;;5.83;1.80;;;;;;;14.56;85.44;101434.39;5154485;57;1141243;-67
2022/09/02 06:38:42;;;;;;;5.93;1.83;;;;;;;14.74;84.29;101440.91;5197468;56;1139008;-67
2022/09/02 06:43:49;;;;;;;6.43;1.93;;;;;;;14.98;83.90;101449.56;5135727;56;1139004;-72
2022/09/02 06:48:56;;;;;;;4.43;2.00;;;;;;;15.24;82.77;101447.94;5151327;56;1138951;-71
2022/09/02 06:54:04;;;;;;;5.50;1.57;;;;;;;15.37;82.80;101445.47;5151759;57;1139008;-72
2022/09/02 06:59:12;;;;;;;4.20;1.10;;;;;;;15.61;82.20;101447.08;5150784;56;1139080;-70
2022/09/02 07:09:46;;;;;;;1.97;1.23;;;;;;;16.25;79.36;101442.43;5153506;56;1137121;-70
2022/09/02 07:14:55;;;;;;;5.23;1.17;;;;;;;16.57;80.00;101441.44;5143273;57;1137000;-71
2022/09/02 07:20:03;;;;;;;1.47;0.90;;;;;;;16.85;78.79;101440.71;5116191;56;1137198;-67
2022/09/02 07:25:12;;;;;;;1.60;0.83;;;;;;;17.06;74.99;101441.47;5116760;57;1137116;-68
2022/09/02 07:30:18;;;;;;;2.43;0.63;;;;;;;16.97;72.83;101448.11;5127705;57;1136950;-66
2022/09/02 07:35:25;;;;;;;23.90;1.17;;;;;;;16.73;72.48;101445.82;5126434;56;1136907;-73
2022/09/02 07:40:35;;;;;;;0.70;0.67;;;;;;;16.61;71.07;101437.04;5125617;56;1139029;-71
2022/09/02 07:45:42;;;;;;;6.70;0.80;;;;;;;16.50;70.84;101441.97;5121830;56;1137180;-69
2022/09/02 07:50:49;;;;;;;10.70;1.10;;;;;;;16.52;71.58;101447.17;5125508;56;1137013;-70
2022/09/02 07:55:55;;;;;;;0.56;0.30;;;;;;;16.65;72.00;101444.33;5158781;56;1139447;-66
2022/09/02 08:01:01;;;;;;;3.20;0.60;;;;;;;16.75;69.75;101446.04;5121397;56;1134890;-69
2022/09/02 08:06:09;;;;;;;1.70;0.70;;;;;;;16.87;69.87;101445.43;5088913;56;1134867;-72
2022/09/02 08:11:15;;;;;;;11.70;0.97;;;;;;;17.18;69.11;101443.02;5116565;56;1139062;-71
2022/09/02 08:16:20;;;;;;;6.50;1.30;;;;;;;17.61;68.63;101438.23;5098434;57;1141059;-70
2022/09/02 08:21:26;;;;;;;1.97;0.53;;;;;;;17.92;64.36;101435.27;5034392;58;1139492;-68
2022/09/02 08:26:35;;;;;;;9.13;1.73;;;;;;;18.16;62.60;101439.31;5093894;57;1139090;-71
2022/09/02 08:31:40;;;;;;;3.02;0.42;;;;;;;18.42;63.80;101433.64;5131625;57;1139076;-69
2022/09/02 08:36:46;;;;;;;1.75;0.40;;;;;;;18.65;61.24;101429.25;5133885;57;1139065;-70
2022/09/02 08:42:21;;;;;;;10.70;2.02;;;;;;;18.83;62.60;101432.33;5149054;56;1139137;-72
2022/09/02 08:47:30;;;;;;;0.45;0.40;;;;;;;19.11;61.99;101430.94;5166164;56;1141076;-68
2022/09/02 08:53:08;;;;;;;3.15;0.60;;;;;;;19.45;58.81;101427.92;5128944;57;1138939;-70
2022/09/02 08:58:21;;;;;;;11.90;0.80;;;;;;;19.60;58.21;101431.77;5128415;57;1139271;-72
2022/09/02 09:03:40;;;;;;;1.22;0.40;;;;;;;19.79;58.33;101426.73;5127315;56;1141395;-73
2022/09/02 09:08:56;;;;;;;1.60;0.50;;;;;;;19.81;53.00;101427.41;5124330;57;1139363;-67
2022/09/02 09:14:21;;;;;;;4.25;0.37;;;;;;;19.93;55.54;101423.47;5095564;57;1139024;-71
2022/09/02 09:19:54;;;;;;;0.78;0.32;;;;;;;20.16;52.52;101420.27;5110695;57;1138999;-69
2022/09/02 09:25:00;;;;;;;4.90;0.80;;;;;;;20.26;51.56;101416.95;5139196;56;1136947;-69
2022/09/02 09:30:09;;;;;;;3.12;0.47;;;;;;;20.38;54.41;101410.31;5136054;57;1136954;-71
2022/09/02 09:35:17;;;;;;;3.60;0.70;;;;;;;20.54;50.58;101409.55;5136252;57;1137006;-69
2022/09/02 09:40:30;;;;;;;0.30;0.30;;;;;;;20.49;50.50;101405.15;5136355;57;1137304;-67
2022/09/02 09:45:46;;;;;;;0.75;0.47;;;;;;;20.31;47.31;101416.83;5140044;57;1136845;-64
2022/09/02 09:51:02;;;;;;;1.37;0.40;;;;;;;20.18;48.55;101408.33;5139567;57;1136979;-68
2022/09/02 09:56:19;;;;;;;0.35;0.35;;;;;;;19.93;48.92;101403.83;5138163;57;1136930;-66
2022/09/02 10:01:31;;;;;;;5.85;0.40;;;;;;;19.78;49.41;101403.56;5138107;57;1134933;-68
2022/09/02 10:06:43;;;;;;;1.35;0.68;;;;;;;19.93;50.73;101399.80;5130959;57;1138958;-65
2022/09/02 10:12:05;;;;;;;1.45;0.88;;;;;;;20.20;48.13;101384.00;5138256;57;1139067;-70
2022/09/02 10:17:54;;;;;;;12.43;0.97;;;;;;;20.47;48.16;101378.44;5108389;57;1138965;-68
2022/09/02 10:23:32;;;;;;;2.12;0.30;;;;;;;20.60;50.28;101380.19;5128860;57;1141245;-72
2022/09/02 10:29:01;;;;;;;2.77;0.37;;;;;;;21.06;51.70;101372.05;5004688;57;1139028;-69
2022/09/02 10:34:34;;;;;;;6.17;0.57;;;;;;;21.46;50.65;101374.95;5005741;57;1139054;-70
2022/09/02 10:40:09;;;;;;;2.20;0.47;;;;;;;21.63;49.77;101375.27;4881475;58;1139178;-67
2022/09/02 10:45:24;;;;;;;13.75;1.00;;;;;;;21.41;47.43;101372.25;5015354;57;1137203;-65
2022/09/02 10:50:44;;;;;;;6.25;0.70;;;;;;;21.25;48.88;101360.64;5008460;58;1139270;-67
2022/09/02 10:56:02;;;;;;;12.58;1.20;;;;;;;21.48;46.45;101355.44;4809017;60;1137075;-73
2022/09/02 11:01:16;;;;;;;6.65;0.75;;;;;;;21.61;45.37;101357.10;4829059;59;1139324;-68
2022/09/02 11:06:35;;;;;;;2.05;0.40;;;;;;;21.61;48.05;101353.06;4995669;58;1136928;-71
2022/09/02 11:11:56;;;;;;;7.53;0.75;;;;;;;22.07;46.32;101352.81;5030451;58;1134962;-74
2022/09/02 11:17:13;;;;;;;2.98;0.85;;;;;;;21.79;43.50;101355.56;5128281;56;1139415;-68
2022/09/02 11:22:58;;;;;;;6.15;0.85;;;;;;;21.40;45.12;101346.34;5223338;55;1139025;-67
2022/09/02 11:28:39;;;;;;;0.65;0.25;;;;;;;21.34;47.29;101341.66;5056575;57;1139335;-70
2022/09/02 11:34:08;;;;;;;3.00;0.50;;;;;;;21.60;44.21;101339.27;5131162;57;1139081;-74
2022/09/02 11:39:36;;;;;;;11.25;0.80;;;;;;;21.95;46.68;101328.59;5062289;57;1139297;-67
2022/09/02 11:44:58;;;;;;;9.13;1.30;;;;;;;22.34;44.49;101325.41;5078827;57;1141111;-69
2022/09/02 11:50:12;;;;;;;11.05;1.30;;;;;;;22.10;44.02;101334.45;5117467;56;1139221;-69
2022/09/02 11:55:36;;;;;;;4.92;1.05;;;;;;;21.80;43.51;101331.66;5118756;57;1139282;-67
2022/09/02 12:01:05;;;;;;;1.30;0.50;;;;;;;21.66;45.20;101325.97;5128440;55;1137003;-72
2022/09/02 12:06:13;;;;;;;11.38;0.70;;;;;;;21.56;44.74;101316.38;5128370;57;1137242;-68
2022/09/02 12:11:38;;;;;;;12.75;0.93;;;;;;;21.36;45.20;101315.92;5127628;57;1139052;-71
2022/09/02 12:17:03;;;;;;;18.50;1.82;;;;;;;21.25;44.07;101322.47;5128991;57;1139165;-67
2022/09/02 12:22:26;;;;;;;10.22;0.66;;;;;;;21.18;43.89;101312.03;5129008;56;1141165;-67
2022/09/02 12:27:36;;;;;;;;;;;;;;;21.20;44.28;101311.39;5131680;57;1141173;-72
2022/09/02 12:32:51;;;;;;;2.47;0.70;;;;;;;21.15;43.15;101296.72;5119562;57;976366;-70
2022/09/02 12:38:11;;;;;;;7.35;1.15;;;;;;;21.09;44.36;101299.57;5044168;58;1137100;-68
2022/09/02 12:43:24;;;;;;;13.78;1.40;;;;;;;21.02;44.87;101290.01;4886516;60;1139097;-68
2022/09/02 12:48:37;;;;;;;7.62;0.95;;;;;;;21.02;45.06;101282.44;4972523;58;1141166;-66
2022/09/02 12:53:46;;;;;;;4.62;0.90;;;;;;;21.29;44.90;101278.08;5047975;57;1139319;-71
2022/09/02 12:58:55;;;;;;;2.83;0.78;;;;;;;21.55;42.65;101281.05;4995323;58;1139029;-70
2022/09/02 13:04:22;;;;;;;5.80;1.12;;;;;;;21.37;43.02;101286.66;4990341;58;1139355;-68
2022/09/02 13:09:56;;;;;;;2.12;1.37;;;;;;;21.21;43.32;101283.48;4995528;58;1139161;-68
2022/09/02 13:15:44;;;;;;;2.05;0.57;;;;;;;21.07;43.60;101280.09;4994070;58;1139470;-69
2022/09/02 13:21:03;;;;;;;0.60;0.60;;;;;;;20.99;41.63;101279.58;5010643;58;1136829;-71
2022/09/02 13:26:45;;;;;;;8.28;0.90;;;;;;;21.26;43.12;101270.84;4996868;58;1137007;-72
2022/09/02 13:32:15;;;;;;;8.95;1.00;;;;;;;21.56;41.55;101270.11;5067730;57;1137478;-71
2022/09/02 13:37:44;;;;;;;17.42;0.78;;;;;;;21.71;40.09;101273.77;5126208;57;1139015;-73
2022/09/02 13:43:00;;;;;;;3.37;0.57;;;;;;;21.52;41.00;101269.31;5107758;57;1141091;-69
2022/09/02 13:48:26;;;;;;;4.53;0.50;;;;;;;21.29;40.59;101270.00;5137255;57;1139318;-66
2022/09/02 13:53:39;;;;;;;197.32;153.30;;;;;;;21.12;41.54;101262.92;5139497;56;1139107;-71
2022/09/02 13:58:59;;;;;;;31.05;23.87;;;;;;;21.06;42.72;101250.17;5141952;56;1147632;-69
2022/09/02 14:04:11;;;;;;;1.37;1.00;;;;;;;21.23;42.10;101242.96;5137430;56;1143183;-69
2022/09/02 14:09:26;;;;;;;14.80;1.10;;;;;;;21.25;41.33;101247.13;5049635;58;1138994;-69
2022/09/02 14:14:32;;;;;;;7.00;1.02;;;;;;;21.15;41.57;101244.27;5090837;56;1141038;-68
2022/09/02 14:19:38;;;;;;;6.08;1.57;;;;;;;21.01;41.03;101241.25;5121496;57;1138976;-70
2022/09/02 14:24:45;;;;;;;8.73;3.72;;;;;;;21.04;42.47;101239.58;5079412;57;1139054;-69
2022/09/02 14:29:57;;;;;;;6.45;1.25;;;;;;;21.29;40.95;101226.95;5123716;57;1139018;-66
2022/09/02 14:35:19;;;;;;;;;;;;;;;21.44;39.91;101228.43;5129818;57;1139036;-67
2022/09/02 14:40:38;;;;;;;9.25;0.42;;;;;;;21.58;40.77;101222.84;5122047;57;976282;-71
2022/09/02 14:45:47;;;;;;;36.40;15.53;;;;;;;21.85;41.31;101215.66;5044693;58;1137207;-68
2022/09/02 14:51:02;;;;;;;4.70;0.82;;;;;;;22.12;40.02;101218.94;5085501;57;1141331;-70
2022/09/02 14:56:08;;;;;;;15.48;1.30;;;;;;;22.21;38.53;101217.36;5065472;57;1136952;-69
2022/09/02 15:01:14;;;;;;;2.92;0.65;;;;;;;21.97;38.52;101222.86;5220513;56;1139049;-71
2022/09/02 15:06:20;;;;;;;5.53;0.47;;;;;;;21.65;38.55;101221.98;5240144;56;1137177;-70
2022/09/02 15:11:26;;;;;;;1.42;1.30;;;;;;;21.47;40.00;101226.75;5060588;57;1137009;-67
2022/09/02 15:16:31;;;;;;;9.33;4.30;;;;;;;21.28;40.26;101224.44;5204023;56;1136972;-68
2022/09/02 15:21:39;;;;;;;6.67;2.95;;;;;;;21.13;40.19;101228.30;5216001;55;1136814;-69
2022/09/02 15:26:44;;;;;;;4.85;1.40;;;;;;;21.00;40.86;101223.94;5204551;55;1137101;-72
2022/09/02 15:31:54;;;;;;;2.00;1.00;;;;;;;20.94;41.00;101228.64;5089000;57;1136926;-70
2022/09/02 15:37:01;;;;;;;15.28;12.88;;;;;;;21.01;40.95;101222.94;5186230;55;1137164;-70
2022/09/02 15:42:06;;;;;;;9.43;2.05;;;;;;;21.17;41.70;101215.34;5132125;56;1141150;-68
2022/09/02 15:47:12;;;;;;;10.00;7.50;;;;;;;21.30;39.97;101213.00;5226779;55;1137025;-68
2022/09/02 15:52:18;;;;;;;6.25;1.62;;;;;;;21.32;40.03;101205.09;5216848;56;1138999;-69
2022/09/02 15:57:24;;;;;;;16.05;4.42;;;;;;;21.41;40.49;101200.52;5074821;57;1137042;-67
2022/09/02 16:02:30;;;;;;;20.57;7.03;;;;;;;21.40;38.76;101206.40;5218249;56;1138993;-66
2022/09/02 16:07:36;;;;;;;8.28;3.00;;;;;;;21.37;38.03;101215.34;5218295;56;1139058;-68
2022/09/02 16:12:42;;;;;;;2.50;1.10;;;;;;;21.36;38.71;101209.13;5206994;56;1134802;-67
2022/09/02 16:17:48;;;;;;;8.33;6.25;;;;;;;21.43;39.07;101209.26;5216231;56;1134904;-65
2022/09/02 16:22:54;;;;;;;2.75;0.50;;;;;;;21.44;39.42;101205.55;5218423;56;1138971;-67
2022/09/02 16:28:00;;;;;;;4.83;1.93;;;;;;;21.40;38.14;101198.33;5217698;55;1139045;-68
2022/09/02 16:33:06;;;;;;;5.30;1.27;;;;;;;21.33;39.05;101201.89;5217800;55;1138984;-69
2022/09/02 16:38:12;;;;;;;1.37;0.50;;;;;;;21.31;39.12;101199.87;5218796;56;1139000;-67
2022/09/02 16:43:17;;;;;;;2.92;1.12;;;;;;;21.25;39.38;101194.67;5202775;56;1139136;-66
2022/09/02 16:48:25;;;;;;;2.05;0.78;;;;;;;21.23;40.28;101196.72;5147598;56;1139082;-70
2022/09/02 16:53:32;;;;;;;1.10;1.00;;;;;;;21.19;40.06;101187.77;5189540;56;1138985;-69
2022/09/02 16:58:38;;;;;;;6.80;2.00;;;;;;;21.06;39.85;101182.93;5217558;56;1139092;-68
2022/09/02 17:03:46;;;;;;;49.38;2.75;;;;;;;20.96;41.29;101191.16;5203716;56;1139059;-66
2022/09/02 17:08:52;;;;;;;10.75;3.95;;;;;;;20.93;41.75;101196.06;5070894;56;1141239;-69
2022/09/02 17:14:08;;;;;;;32.35;3.65;;;;;;;20.84;42.12;101189.84;5088116;56;1141202;-70
2022/09/02 17:19:20;;;;;;;23.12;2.60;;;;;;;20.71;42.61;101190.35;5018802;57;1141172;-71
2022/09/02 17:24:29;;;;;;;21.87;2.12;;;;;;;20.54;43.30;101199.92;5137929;56;1141531;-72
2022/09/02 17:29:36;;;;;;;34.13;3.37;;;;;;;20.36;43.54;101202.75;5087051;56;1141151;-64
2022/09/02 17:34:42;;;;;;;47.70;4.42;;;;;;;20.19;43.88;101200.50;5187253;55;1141213;-68
2022/09/02 17:39:49;;;;;;;59.23;4.08;;;;;;;20.03;44.38;101201.30;5060425;57;1141134;-65
2022/09/02 17:44:56;;;;;;;27.42;2.72;;;;;;;19.84;44.86;101208.31;5025407;57;1141244;-68
2022/09/02 17:50:04;;;;;;;6.92;1.20;;;;;;;19.66;45.15;101207.06;5185775;56;1141338;-66
2022/09/02 17:55:10;;;;;;;22.58;1.55;;;;;;;19.47;45.32;101211.29;5081357;56;1139100;-68
2022/09/02 18:00:21;;;;;;;4.67;0.80;;;;;;;19.31;45.80;101212.04;5015415;58;1141269;-68
2022/09/02 18:05:51;;;;;;;8.18;1.15;;;;;;;19.12;46.33;101222.12;5014740;58;1139092;-72
2022/09/02 18:11:03;;;;;;;15.28;1.67;;;;;;;18.94;47.07;101223.00;5066310;57;1139129;-70
2022/09/02 18:16:59;;;;;;;16.82;1.25;;;;;;;18.82;47.69;101232.30;5104502;57;1141282;-68
2022/09/02 18:22:21;;;;;;;24.55;2.35;;;;;;;18.70;48.40;101242.08;5163590;56;1139066;-68
2022/09/02 18:28:16;;;;;;;17.92;1.40;;;;;;;18.63;48.88;101245.05;5145669;55;1139188;-69
2022/09/02 18:33:47;;;;;;;9.38;1.87;;;;;;;18.51;49.34;101243.87;5074040;57;1141376;-68
2022/09/02 18:39:09;;;;;;;13.55;1.62;;;;;;;18.40;49.82;101248.13;5154861;56;1138935;-66
2022/09/02 18:44:28;;;;;;;20.37;1.70;;;;;;;18.26;50.48;101238.78;5155456;56;1141107;-69
2022/09/02 18:49:37;;;;;;;14.34;1.92;;;;;;;18.15;51.06;101250.20;5094579;56;1141123;-70
2022/09/02 18:54:50;;;;;;;19.92;5.17;;;;;;;17.97;51.96;101246.14;5188826;55;1141104;-72
2022/09/02 19:00:12;;;;;;;3.23;1.93;;;;;;;17.81;52.73;101228.55;5213844;56;1141376;-67
2022/09/02 19:05:23;;;;;;;16.95;3.55;;;;;;;17.80;53.42;101245.59;5030241;57;1140162;-67
2022/09/02 19:10:28;;;;;;;15.48;3.45;;;;;;;17.74;53.73;101240.33;5132141;56;1141731;-67
2022/09/02 19:15:34;;;;;;;12.03;2.40;;;;;;;17.72;54.10;101242.30;5085602;57;1141154;-70
2022/09/02 19:20:40;;;;;;;3.92;2.02;;;;;;;17.66;54.24;101240.23;5218267;55;1141155;-64
2022/09/02 19:25:45;;;;;;;13.55;2.62;;;;;;;17.57;54.74;101246.41;5214953;55;1139060;-71
2022/09/02 19:30:56;;;;;;;4.55;2.90;;;;;;;17.48;55.07;101246.81;5131360;56;1141244;-72
2022/09/02 19:36:02;;;;;;;19.67;2.52;;;;;;;17.36;55.30;101247.98;5090957;56;1139436;-68
2022/09/02 19:41:08;;;;;;;12.82;1.62;;;;;;;17.20;56.25;101249.92;5163604;56;1141173;-70
2022/09/02 19:46:14;;;;;;;12.40;2.15;;;;;;;17.13;56.42;101252.80;5152929;56;1141102;-67
2022/09/02 19:51:20;;;;;;;8.88;1.57;;;;;;;17.10;57.26;101253.11;5096781;57;1141429;-70
2022/09/02 19:56:26;;;;;;;7.37;1.00;;;;;;;17.10;57.17;101255.78;5154928;56;1139120;-70
2022/09/02 20:01:33;;;;;;;3.88;0.94;;;;;;;16.90;57.56;101253.27;5027601;56;1138747;-70
2022/09/02 20:06:39;;;;;;;7.70;1.30;;;;;;;16.79;57.98;101259.61;5127444;56;1139273;-70
2022/09/02 20:11:45;;;;;;;9.88;1.55;;;;;;;16.73;58.42;101262.34;5125243;56;1139058;-68
